createdAt,value
2022-12-01T00:00:25.045Z,22.91
2022-12-01T00:02:54.853Z,22.90
2022-12-01T00:05:24.710Z,22.94
2022-12-01T00:07:54.432Z,22.99
2022-12-01T00:10:30.366Z,22.89
2022-12-01T00:13:06.349Z,22.99
2022-12-01T00:15:38.641Z,22.94
2022-12-01T00:18:08.457Z,22.94
2022-12-01T00:20:38.787Z,23.04
2022-12-01T00:23:08.455Z,23.13
2022-12-01T00:25:38.147Z,23.18
2022-12-01T00:28:07.914Z,23.14
2022-12-01T00:30:37.579Z,23.13
2022-12-01T00:33:07.222Z,23.15
2022-12-01T00:35:36.947Z,23.19
2022-12-01T00:38:06.852Z,23.22
2022-12-01T00:40:36.458Z,23.24
2022-12-01T00:43:06.173Z,23.27
2022-12-01T00:45:35.827Z,23.35
2022-12-01T00:48:05.538Z,23.33
2022-12-01T00:50:35.357Z,23.34
2022-12-01T00:53:04.995Z,23.37
2022-12-01T00:55:34.777Z,23.52
2022-12-01T00:58:04.478Z,23.48
2022-12-01T01:00:34.182Z,23.58
2022-12-01T01:03:04.133Z,23.56
2022-12-01T01:05:37.089Z,23.54
2022-12-01T01:08:09.957Z,23.50
2022-12-01T01:10:47.323Z,23.52
2022-12-01T01:13:17.928Z,23.51
2022-12-01T01:15:47.665Z,23.42
2022-12-01T01:18:17.271Z,23.33
2022-12-01T01:20:47.017Z,23.24
2022-12-01T01:23:16.764Z,23.18
2022-12-01T01:25:46.379Z,23.31
2022-12-01T01:28:16.154Z,23.18
2022-12-01T01:30:45.917Z,23.13
2022-12-01T01:33:15.685Z,23.12
2022-12-01T01:35:45.429Z,23.14
2022-12-01T01:38:15.104Z,23.05
2022-12-01T01:40:50.634Z,23.02
2022-12-01T01:43:40.500Z,23.11
2022-12-01T01:46:12.813Z,22.98
2022-12-01T01:48:45.701Z,23.04
2022-12-01T01:51:17.197Z,23.13
2022-12-01T01:53:48.928Z,23.16
2022-12-01T01:56:18.651Z,23.32
2022-12-01T01:58:49.216Z,22.97
2022-12-01T02:01:18.907Z,23.12
2022-12-01T02:03:49.569Z,23.13
2022-12-01T02:06:19.318Z,23.11
2022-12-01T02:08:49.000Z,23.09
2022-12-01T02:11:50.709Z,23.12
2022-12-01T02:14:26.668Z,23.11
2022-12-01T02:17:00.680Z,23.02
2022-12-01T02:19:42.156Z,23.01
2022-12-01T02:22:53.719Z,23.04
2022-12-01T02:26:12.987Z,22.98
2022-12-01T02:29:07.619Z,23.00
2022-12-01T02:32:01.077Z,22.91
2022-12-01T02:34:46.911Z,23.04
2022-12-01T02:37:23.765Z,23.11
2022-12-01T02:40:11.467Z,23.10
2022-12-01T02:43:01.299Z,23.25
2022-12-01T02:45:51.041Z,23.11
2022-12-01T02:48:34.389Z,23.09
2022-12-01T02:51:13.650Z,23.08
2022-12-01T02:53:43.869Z,23.22
2022-12-01T02:56:17.493Z,23.39
2022-12-01T02:58:47.253Z,23.51
2022-12-01T03:01:47.899Z,23.54
2022-12-01T03:04:35.629Z,23.61
2022-12-01T03:07:08.386Z,23.65
2022-12-01T03:09:47.686Z,23.70
2022-12-01T03:12:42.410Z,23.80
2022-12-01T03:15:24.679Z,23.87
2022-12-01T03:18:08.861Z,24.07
2022-12-01T03:20:51.849Z,24.08
2022-12-01T03:23:25.401Z,24.15
2022-12-01T03:25:59.073Z,24.18
2022-12-01T03:28:35.318Z,24.24
2022-12-01T03:31:10.199Z,24.29
2022-12-01T03:33:59.930Z,24.29
2022-12-01T03:36:39.530Z,24.35
2022-12-01T03:39:18.171Z,24.47
2022-12-01T03:41:56.882Z,24.55
2022-12-01T03:44:36.088Z,24.49
2022-12-01T03:47:16.752Z,24.54
2022-12-01T03:49:54.403Z,24.59
2022-12-01T03:52:27.045Z,24.44
2022-12-01T03:54:56.632Z,24.43
2022-12-01T03:57:38.078Z,24.38
2022-12-01T04:00:10.278Z,24.36
2022-12-01T04:02:40.107Z,24.37
2022-12-01T04:05:13.504Z,24.36
2022-12-01T04:07:43.254Z,24.53
2022-12-01T04:10:13.022Z,24.56
2022-12-01T04:12:42.695Z,24.51
2022-12-01T04:15:16.056Z,24.50
2022-12-01T04:17:46.746Z,24.46
2022-12-01T04:20:17.823Z,24.48
2022-12-01T04:22:47.593Z,24.55
2022-12-01T04:25:17.410Z,24.62
2022-12-01T04:27:47.242Z,24.68
2022-12-01T04:30:17.047Z,24.77
2022-12-01T04:32:46.863Z,24.83
2022-12-01T04:35:16.563Z,24.95
2022-12-01T04:37:46.204Z,24.94
2022-12-01T04:40:16.168Z,24.99
2022-12-01T04:42:45.783Z,24.91
2022-12-01T04:45:15.433Z,24.91
2022-12-01T04:47:45.118Z,24.97
2022-12-01T04:50:14.825Z,25.11
2022-12-01T04:52:44.463Z,25.00
2022-12-01T04:55:16.834Z,25.03
2022-12-01T04:57:46.534Z,25.23
2022-12-01T05:00:17.030Z,25.11
2022-12-01T05:02:47.683Z,25.07
2022-12-01T05:05:17.427Z,25.08
2022-12-01T05:07:47.068Z,25.10
2022-12-01T05:10:16.805Z,26.01
2022-12-01T05:12:49.706Z,26.17
2022-12-01T05:15:22.898Z,25.93
2022-12-01T05:17:52.670Z,25.81
2022-12-01T05:20:43.900Z,25.57
2022-12-01T05:23:16.720Z,25.29
2022-12-01T05:25:47.199Z,25.11
2022-12-01T05:28:16.748Z,24.83
2022-12-01T05:30:46.413Z,24.64
2022-12-01T05:33:16.139Z,24.44
2022-12-01T05:35:45.939Z,24.39
2022-12-01T05:38:15.657Z,24.20
2022-12-01T05:40:45.662Z,23.99
2022-12-01T05:43:15.533Z,23.81
2022-12-01T05:45:45.385Z,23.83
2022-12-01T05:48:15.265Z,23.71
2022-12-01T05:50:45.340Z,23.79
2022-12-01T05:53:16.367Z,23.65
2022-12-01T05:55:46.079Z,23.73
2022-12-01T05:58:16.305Z,23.74
2022-12-01T06:00:46.394Z,23.80
2022-12-01T06:03:16.853Z,23.99
2022-12-01T06:05:46.497Z,23.91
2022-12-01T06:08:16.271Z,23.91
2022-12-01T06:10:46.729Z,23.84
2022-12-01T06:13:16.780Z,23.59
2022-12-01T06:15:46.421Z,23.20
2022-12-01T06:18:16.326Z,23.04
2022-12-01T06:20:46.092Z,22.90
2022-12-01T06:23:15.755Z,22.75
2022-12-01T06:25:46.585Z,22.64
2022-12-01T06:28:16.706Z,22.51
2022-12-01T06:30:46.825Z,22.52
2022-12-01T06:33:16.532Z,22.42
2022-12-01T06:35:46.201Z,23.09
2022-12-01T06:38:15.969Z,23.46
2022-12-01T06:40:46.574Z,23.72
2022-12-01T06:43:16.137Z,23.89
2022-12-01T06:45:45.910Z,24.02
2022-12-01T06:48:15.960Z,24.10
2022-12-01T06:50:45.699Z,24.32
2022-12-01T06:53:15.454Z,24.26
2022-12-01T06:55:45.223Z,24.34
2022-12-01T06:58:15.513Z,24.37
2022-12-01T07:00:49.068Z,24.37
2022-12-01T07:03:22.142Z,24.33
2022-12-01T07:06:00.399Z,24.35
2022-12-01T07:08:31.734Z,24.33
2022-12-01T07:11:14.160Z,24.31
2022-12-01T07:13:48.218Z,24.31
2022-12-01T07:16:18.269Z,24.29
2022-12-01T07:18:48.011Z,24.29
2022-12-01T07:21:18.903Z,24.25
2022-12-01T07:23:48.605Z,24.24
2022-12-01T07:26:21.040Z,24.18
2022-12-01T07:28:50.770Z,24.18
2022-12-01T07:31:21.453Z,24.15
2022-12-01T07:33:51.020Z,24.15
2022-12-01T07:36:20.681Z,24.14
2022-12-01T07:38:50.356Z,24.08
2022-12-01T07:41:21.041Z,24.03
2022-12-01T07:43:51.241Z,24.03
2022-12-01T07:46:24.470Z,24.03
2022-12-01T07:48:56.265Z,24.02
2022-12-01T07:51:27.439Z,23.95
2022-12-01T07:53:57.770Z,24.00
2022-12-01T07:56:27.688Z,23.93
2022-12-01T07:58:57.528Z,24.00
2022-12-01T08:01:27.624Z,23.95
2022-12-01T08:04:02.784Z,23.92
2022-12-01T08:06:32.654Z,23.90
2022-12-01T08:09:02.294Z,23.85
2022-12-01T08:11:32.286Z,23.82
2022-12-01T08:14:02.017Z,23.71
2022-12-01T08:16:32.950Z,23.64
2022-12-01T08:19:02.578Z,23.52
2022-12-01T08:21:32.269Z,23.40
2022-12-01T08:24:01.981Z,23.29
2022-12-01T08:26:31.993Z,23.16
2022-12-01T08:29:01.903Z,23.09
2022-12-01T08:31:34.679Z,23.02
2022-12-01T08:34:08.235Z,23.02
2022-12-01T08:36:37.987Z,22.89
2022-12-01T08:39:09.975Z,22.74
2022-12-01T08:41:39.697Z,22.71
2022-12-01T08:44:09.513Z,22.64
2022-12-01T08:46:39.671Z,22.57
2022-12-01T08:49:09.557Z,22.52
2022-12-01T08:51:39.224Z,22.47
2022-12-01T08:54:08.941Z,22.41
2022-12-01T08:56:41.583Z,22.37
2022-12-01T08:59:11.649Z,22.30
2022-12-01T09:01:53.805Z,22.27
2022-12-01T09:04:26.254Z,22.23
2022-12-01T09:06:58.402Z,22.18
2022-12-01T09:09:30.706Z,22.13
2022-12-01T09:12:00.544Z,22.11
2022-12-01T09:14:30.203Z,22.08
2022-12-01T09:17:00.050Z,22.07
2022-12-01T09:19:30.264Z,22.01
2022-12-01T09:22:00.403Z,22.01
2022-12-01T09:24:30.401Z,21.98
2022-12-01T09:27:01.456Z,21.93
2022-12-01T09:29:32.017Z,21.91
2022-12-01T09:32:02.882Z,21.88
2022-12-01T09:34:32.550Z,21.88
2022-12-01T09:37:02.272Z,21.88
2022-12-01T09:39:32.372Z,21.83
2022-12-01T09:42:09.334Z,21.81
2022-12-01T09:44:47.753Z,21.77
2022-12-01T09:47:36.979Z,21.74
2022-12-01T09:50:20.448Z,21.71
2022-12-01T09:53:18.527Z,21.68
2022-12-01T09:55:48.959Z,21.65
2022-12-01T09:58:27.937Z,21.62
2022-12-01T10:00:57.792Z,21.61
2022-12-01T10:03:37.626Z,21.58
2022-12-01T10:06:29.292Z,21.53
2022-12-01T10:09:31.191Z,21.50
2022-12-01T10:12:34.664Z,21.50
2022-12-01T10:15:37.934Z,21.46
2022-12-01T10:18:44.514Z,21.43
2022-12-01T10:21:23.089Z,21.40
2022-12-01T10:24:23.184Z,21.39
2022-12-01T10:27:28.242Z,21.36
2022-12-01T10:30:07.937Z,21.27
2022-12-01T10:32:59.783Z,21.20
2022-12-01T10:35:37.576Z,21.16
2022-12-01T10:38:14.754Z,21.14
2022-12-01T10:40:46.008Z,21.13
2022-12-01T10:43:15.664Z,21.10
2022-12-01T10:45:47.220Z,21.09
2022-12-01T10:48:24.340Z,21.05
2022-12-01T10:50:55.291Z,21.04
2022-12-01T10:53:38.125Z,20.99
2022-12-01T10:56:09.988Z,20.99
2022-12-01T10:58:49.975Z,20.97
2022-12-01T11:01:27.937Z,20.92
2022-12-01T11:04:26.236Z,20.90
2022-12-01T11:06:56.589Z,20.93
2022-12-01T11:09:33.472Z,20.90
2022-12-01T11:12:05.982Z,20.90
2022-12-01T11:14:54.048Z,20.90
2022-12-01T11:17:35.536Z,20.86
2022-12-01T11:20:29.871Z,20.83
2022-12-01T11:23:22.578Z,20.81
2022-12-01T11:26:10.431Z,20.81
2022-12-01T11:28:45.238Z,20.77
2022-12-01T11:31:15.279Z,20.75
2022-12-01T11:33:56.352Z,20.77
2022-12-01T11:36:31.635Z,20.73
2022-12-01T11:39:04.159Z,20.71
2022-12-01T11:41:39.434Z,20.71
2022-12-01T11:47:24.078Z,20.66
2022-12-01T11:50:03.588Z,20.65
2022-12-01T11:52:38.105Z,20.63
2022-12-01T11:55:14.013Z,20.58
2022-12-01T11:57:48.690Z,20.58
2022-12-01T12:00:27.421Z,20.59
2022-12-01T12:03:18.398Z,20.58
2022-12-01T12:05:51.451Z,20.55
2022-12-01T12:08:40.540Z,20.55
2022-12-01T12:11:26.063Z,20.53
2022-12-01T12:14:07.931Z,20.49
2022-12-01T12:16:55.842Z,20.46
2022-12-01T12:19:34.175Z,20.44
2022-12-01T12:22:53.731Z,20.42
2022-12-01T12:25:46.108Z,20.40
2022-12-01T12:28:33.031Z,20.39
2022-12-01T12:31:05.586Z,20.36
2022-12-01T12:33:52.919Z,20.37
2022-12-01T12:36:36.684Z,20.35
2022-12-01T12:39:26.077Z,20.32
2022-12-01T12:41:58.022Z,20.34
2022-12-01T12:44:53.592Z,20.30
2022-12-01T12:47:39.215Z,20.28
2022-12-01T12:50:15.546Z,20.28
2022-12-01T12:52:51.238Z,20.25
2022-12-01T12:55:46.244Z,20.26
2022-12-01T12:58:49.798Z,20.25
2022-12-01T13:01:25.484Z,20.24
2022-12-01T13:04:00.090Z,20.24
2022-12-01T13:06:32.416Z,20.21
2022-12-01T13:09:30.455Z,20.18
2022-12-01T13:12:10.257Z,20.17
2022-12-01T13:14:44.605Z,20.18
2022-12-01T13:17:24.944Z,20.16
2022-12-01T13:19:54.640Z,20.16
2022-12-01T13:22:35.118Z,20.15
2022-12-01T13:25:06.373Z,20.13
2022-12-01T13:27:40.348Z,20.14
2022-12-01T13:30:23.321Z,20.10
2022-12-01T13:33:09.319Z,20.10
2022-12-01T13:35:40.844Z,20.07
2022-12-01T13:38:26.477Z,20.06
2022-12-01T13:41:16.444Z,20.02
2022-12-01T13:43:59.121Z,20.00
2022-12-01T13:46:48.692Z,20.01
2022-12-01T13:49:42.425Z,19.99
2022-12-01T13:52:24.013Z,19.98
2022-12-01T13:55:12.462Z,19.95
2022-12-01T13:57:52.198Z,19.91
2022-12-01T14:00:29.448Z,19.93
2022-12-01T14:03:17.352Z,19.89
2022-12-01T14:06:09.571Z,19.88
2022-12-01T14:08:50.865Z,19.88
2022-12-01T14:11:23.215Z,19.85
2022-12-01T14:13:52.852Z,19.84
2022-12-01T14:16:23.631Z,19.86
2022-12-01T14:19:01.598Z,19.81
2022-12-01T14:22:01.318Z,19.80
2022-12-01T14:24:43.004Z,19.81
2022-12-01T14:27:14.281Z,19.80
2022-12-01T14:29:45.524Z,19.79
2022-12-01T14:32:17.939Z,19.75
2022-12-01T14:34:48.545Z,19.74
2022-12-01T14:37:30.979Z,19.73
2022-12-01T14:40:08.202Z,19.71
2022-12-01T14:43:05.070Z,19.72
2022-12-01T14:45:52.732Z,19.68
2022-12-01T14:48:33.703Z,19.68
2022-12-01T14:51:21.543Z,19.65
2022-12-01T14:53:54.608Z,19.65
2022-12-01T14:56:26.116Z,19.65
2022-12-01T14:59:14.743Z,19.64
2022-12-01T15:01:44.415Z,19.60
2022-12-01T15:04:14.068Z,19.60
2022-12-01T15:06:44.378Z,19.61
2022-12-01T15:09:35.833Z,19.59
2022-12-01T15:12:11.151Z,19.61
2022-12-01T15:14:50.214Z,19.55
2022-12-01T15:17:38.612Z,19.57
2022-12-01T15:20:36.461Z,19.54
2022-12-01T15:23:15.839Z,19.54
2022-12-01T15:25:47.792Z,19.48
2022-12-01T15:28:32.037Z,19.50
2022-12-01T15:31:03.751Z,19.53
2022-12-01T15:33:40.558Z,19.47
2022-12-01T15:36:10.809Z,19.48
2022-12-01T15:38:42.728Z,19.46
2022-12-01T15:41:28.958Z,19.46
2022-12-01T15:44:07.006Z,19.44
2022-12-01T15:46:37.181Z,19.45
2022-12-01T15:49:18.161Z,19.45
2022-12-01T15:51:52.158Z,19.43
2022-12-01T15:54:28.276Z,19.37
2022-12-01T15:57:00.624Z,19.37
2022-12-01T15:59:37.316Z,19.36
2022-12-01T16:02:22.013Z,19.33
2022-12-01T16:05:01.765Z,19.30
2022-12-01T16:08:11.306Z,19.33
2022-12-01T16:10:37.118Z,19.35
2022-12-01T16:13:57.141Z,19.33
2022-12-01T16:16:38.459Z,19.31
2022-12-01T16:19:11.069Z,19.31
2022-12-01T16:21:51.380Z,19.29
2022-12-01T16:24:25.623Z,19.29
2022-12-01T16:27:10.843Z,19.26
2022-12-01T16:29:58.997Z,19.27
2022-12-01T16:32:43.676Z,19.28
2022-12-01T16:35:32.113Z,19.26
2022-12-01T16:38:06.198Z,19.25
2022-12-01T16:40:35.995Z,19.27
2022-12-01T16:43:05.843Z,19.27
2022-12-01T16:45:35.638Z,19.25
2022-12-01T16:48:09.274Z,19.27
2022-12-01T16:50:39.860Z,19.28
2022-12-01T16:53:09.653Z,19.27
2022-12-01T16:56:00.496Z,19.25
2022-12-01T16:58:30.301Z,19.25
2022-12-01T17:01:00.385Z,19.22
2022-12-01T17:03:30.951Z,19.23
2022-12-01T17:06:05.660Z,19.24
2022-12-01T17:08:36.400Z,19.24
2022-12-01T17:11:08.566Z,19.20
2022-12-01T17:13:39.926Z,19.20
2022-12-01T17:16:16.852Z,19.15
2022-12-01T17:18:48.246Z,19.16
2022-12-01T17:21:17.976Z,19.15
2022-12-01T17:23:47.793Z,19.10
2022-12-01T17:26:20.276Z,19.09
2022-12-01T17:28:50.788Z,19.11
2022-12-01T17:31:20.672Z,19.10
2022-12-01T17:33:51.020Z,19.09
2022-12-01T17:36:21.116Z,19.08
2022-12-01T17:38:51.935Z,19.06
2022-12-01T17:41:27.185Z,19.07
2022-12-01T17:43:58.132Z,19.04
2022-12-01T17:46:27.810Z,19.05
2022-12-01T17:48:57.616Z,19.00
2022-12-01T17:51:27.313Z,19.00
2022-12-01T17:53:57.102Z,18.99
2022-12-01T17:56:26.692Z,18.97
2022-12-01T17:58:56.280Z,19.02
2022-12-01T18:01:30.111Z,18.98
2022-12-01T18:04:00.742Z,18.98
2022-12-01T18:06:30.540Z,18.98
2022-12-01T18:09:02.641Z,18.89
2022-12-01T18:11:32.344Z,18.94
2022-12-01T18:14:03.342Z,18.91
2022-12-01T18:16:34.897Z,18.89
2022-12-01T18:19:04.808Z,18.87
2022-12-01T18:21:34.374Z,18.86
2022-12-01T18:24:05.749Z,18.87
2022-12-01T18:26:36.124Z,18.84
2022-12-01T18:29:12.993Z,18.80
2022-12-01T18:31:42.759Z,18.76
2022-12-01T18:34:13.405Z,18.76
2022-12-01T18:36:43.764Z,18.78
2022-12-01T18:39:14.116Z,18.81
2022-12-01T18:41:43.764Z,18.75
2022-12-01T18:44:13.749Z,18.78
2022-12-01T18:46:43.508Z,18.76
2022-12-01T18:49:13.873Z,18.78
2022-12-01T18:51:43.899Z,18.75
2022-12-01T18:54:15.952Z,18.76
2022-12-01T18:56:45.828Z,18.72
2022-12-01T18:59:18.434Z,18.75
2022-12-01T19:01:50.137Z,18.72
2022-12-01T19:04:19.907Z,18.75
2022-12-01T19:06:49.669Z,18.76
2022-12-01T19:09:19.365Z,18.71
2022-12-01T19:11:49.443Z,18.66
2022-12-01T19:14:21.229Z,18.69
2022-12-01T19:16:51.295Z,18.64
2022-12-01T19:19:21.213Z,18.65
2022-12-01T19:21:51.943Z,18.67
2022-12-01T19:24:21.833Z,18.65
2022-12-01T19:26:51.469Z,18.63
2022-12-01T19:29:21.218Z,18.66
2022-12-01T19:31:51.211Z,18.61
2022-12-01T19:34:21.018Z,18.59
2022-12-01T19:36:51.482Z,18.63
2022-12-01T19:39:21.503Z,18.63
2022-12-01T19:41:51.167Z,18.62
2022-12-01T19:44:20.917Z,18.62
2022-12-01T19:46:50.481Z,18.62
2022-12-01T19:49:20.167Z,18.62
2022-12-01T19:51:50.001Z,18.62
2022-12-01T19:54:21.756Z,18.61
2022-12-01T19:56:51.907Z,18.61
2022-12-01T19:59:21.644Z,18.51
2022-12-01T20:01:51.466Z,18.48
2022-12-01T20:04:21.107Z,18.46
2022-12-01T20:06:50.856Z,18.44
2022-12-01T20:09:20.485Z,18.42
2022-12-01T20:11:50.691Z,18.43
2022-12-01T20:14:20.490Z,18.46
2022-12-01T20:16:50.136Z,18.36
2022-12-01T20:19:19.855Z,18.43
2022-12-01T20:21:49.432Z,18.38
2022-12-01T20:24:24.353Z,18.40
2022-12-01T20:26:55.901Z,18.35
2022-12-01T20:29:30.631Z,18.38
2022-12-01T20:32:02.978Z,18.37
2022-12-01T20:34:36.764Z,18.34
2022-12-01T20:37:06.243Z,18.35
2022-12-01T20:39:38.393Z,18.27
2022-12-01T20:42:08.478Z,18.30
2022-12-01T20:44:39.283Z,18.30
2022-12-01T20:47:09.025Z,18.25
2022-12-01T20:49:38.687Z,18.26
2022-12-01T20:52:08.284Z,18.17
2022-12-01T20:54:37.849Z,18.04
2022-12-01T20:57:07.646Z,16.92
2022-12-01T20:59:37.614Z,16.50
2022-12-01T21:02:07.227Z,16.32
2022-12-01T21:04:36.954Z,15.98
2022-12-01T21:07:06.511Z,15.84
2022-12-01T21:09:36.283Z,15.69
2022-12-01T21:12:34.562Z,15.74
2022-12-01T21:15:29.927Z,16.42
2022-12-01T21:18:07.400Z,16.93
2022-12-01T21:20:41.847Z,17.58
2022-12-01T21:23:16.954Z,18.25
2022-12-01T21:25:46.746Z,18.65
2022-12-01T21:28:25.743Z,19.16
2022-12-01T21:31:17.098Z,19.73
2022-12-01T21:33:46.985Z,20.06
2022-12-01T21:36:19.538Z,20.39
2022-12-01T21:38:52.463Z,20.66
2022-12-01T21:41:32.397Z,20.97
2022-12-01T21:44:18.176Z,21.23
2022-12-01T21:46:49.331Z,21.50
2022-12-01T21:49:23.893Z,21.69
2022-12-01T21:51:55.586Z,21.85
2022-12-01T21:54:25.548Z,22.02
2022-12-01T21:56:59.750Z,22.20
2022-12-01T21:59:30.654Z,22.33
2022-12-01T22:02:00.438Z,22.47
2022-12-01T22:04:34.375Z,22.63
2022-12-01T22:07:04.958Z,22.79
2022-12-01T22:09:37.516Z,22.87
2022-12-01T22:12:30.168Z,23.00
2022-12-01T22:15:03.661Z,23.07
2022-12-01T22:17:32.700Z,23.21
2022-12-01T22:20:17.034Z,23.26
2022-12-01T22:22:46.719Z,23.39
2022-12-01T22:25:29.917Z,23.45
2022-12-01T22:28:01.620Z,23.46
2022-12-01T22:30:31.140Z,23.63
2022-12-01T22:33:08.002Z,23.85
2022-12-01T22:35:57.537Z,23.80
2022-12-01T22:38:36.329Z,24.01
2022-12-01T22:41:21.345Z,24.13
2022-12-01T22:43:54.307Z,24.08
2022-12-01T22:46:30.085Z,23.69
2022-12-01T22:49:08.870Z,23.42
2022-12-01T22:51:39.704Z,23.30
2022-12-01T22:54:11.957Z,23.41
2022-12-01T22:57:08.988Z,23.47
2022-12-01T22:59:41.545Z,23.57
2022-12-01T23:02:20.997Z,23.77
2022-12-01T23:04:56.133Z,23.94
2022-12-01T23:07:33.124Z,24.04
2022-12-01T23:10:16.767Z,24.11
2022-12-01T23:12:48.286Z,24.20
2022-12-01T23:15:38.253Z,24.29
2022-12-01T23:18:25.087Z,24.38
2022-12-01T23:20:59.981Z,24.37
2022-12-01T23:23:33.062Z,24.49
2022-12-01T23:26:09.785Z,24.46
2022-12-01T23:28:40.824Z,24.60
2022-12-01T23:31:11.980Z,24.64
2022-12-01T23:33:41.629Z,24.68
2022-12-01T23:36:17.389Z,24.66
2022-12-01T23:38:53.900Z,24.73
2022-12-01T23:41:32.547Z,24.74
2022-12-01T23:44:06.385Z,24.76
2022-12-01T23:46:36.371Z,24.85
2022-12-01T23:49:11.991Z,24.91
2022-12-01T23:51:47.869Z,25.02
2022-12-01T23:54:32.002Z,25.06
2022-12-01T23:57:05.861Z,25.06
2022-12-01T23:59:35.503Z,25.05
